createdAt,value
2016-07-01T00:00:29.026Z,0
2016-07-01T00:01:28.401Z,0
2016-07-01T00:02:29.015Z,0
2016-07-01T00:03:29.625Z,0
2016-07-01T00:04:28.339Z,0
2016-07-01T00:05:28.961Z,0
2016-07-01T00:06:29.588Z,0
2016-07-01T00:07:29.599Z,0
2016-07-01T00:08:29.566Z,0
2016-07-01T00:09:29.554Z,0
2016-07-01T00:10:28.914Z,0
2016-07-01T00:11:29.523Z,0
2016-07-01T00:12:29.525Z,0
2016-07-01T00:13:28.872Z,0
2016-07-01T00:14:28.858Z,0
2016-07-01T00:15:28.838Z,0
2016-07-01T00:16:28.162Z,0
2016-07-01T00:17:29.433Z,0
2016-07-01T00:18:28.769Z,0
2016-07-01T00:19:28.154Z,0
2016-07-01T00:20:28.123Z,0
2016-07-01T00:21:28.742Z,0
2016-07-01T00:22:29.367Z,0
2016-07-01T00:23:28.704Z,0
2016-07-01T00:24:29.338Z,0
2016-07-01T00:25:29.303Z,0
2016-07-01T00:26:29.315Z,0
2016-07-01T00:27:29.275Z,0
2016-07-01T00:28:28.658Z,0
2016-07-01T00:29:29.264Z,0
2016-07-01T00:30:29.267Z,0
2016-07-01T00:31:29.240Z,0
2016-07-01T00:32:28.564Z,0
2016-07-01T00:33:29.203Z,0
2016-07-01T00:34:28.545Z,0
2016-07-01T00:35:28.527Z,0
2016-07-01T00:36:28.520Z,0
2016-07-01T00:37:29.140Z,0
2016-07-01T00:38:29.135Z,0
2016-07-01T00:39:27.847Z,0
2016-07-01T00:40:28.459Z,0
2016-07-01T00:41:28.446Z,0
2016-07-01T00:42:27.813Z,0
2016-07-01T00:43:29.093Z,0
2016-07-01T00:44:29.036Z,0
2016-07-01T00:45:28.375Z,0
2016-07-01T00:46:27.098Z,0
2016-07-01T00:47:28.353Z,0
2016-07-01T00:48:27.741Z,0
2016-07-01T00:49:28.972Z,0
2016-07-01T00:50:28.313Z,0
2016-07-01T00:51:28.930Z,0
2016-07-01T00:52:28.289Z,0
2016-07-01T00:53:28.921Z,0
2016-07-01T00:54:28.903Z,0
2016-07-01T00:55:28.887Z,0
2016-07-01T00:56:28.883Z,0
2016-07-01T00:57:28.208Z,0
2016-07-01T00:58:28.211Z,0
2016-07-01T00:59:28.849Z,0
2016-07-01T01:00:27.549Z,0
2016-07-01T01:01:28.185Z,0
2016-07-01T01:02:28.155Z,0
2016-07-01T01:03:28.791Z,0
2016-07-01T01:04:28.156Z,0
2016-07-01T01:05:28.747Z,0
2016-07-01T01:06:27.459Z,0
2016-07-01T01:07:28.717Z,0
2016-07-01T01:08:28.754Z,0
2016-07-01T01:09:28.054Z,0
2016-07-01T01:10:28.072Z,0
2016-07-01T01:11:28.028Z,0
2016-07-01T01:12:28.640Z,0
2016-07-01T01:13:27.363Z,0
2016-07-01T01:14:28.675Z,0
2016-07-01T01:15:28.609Z,0
2016-07-01T01:16:27.969Z,0
2016-07-01T01:17:28.586Z,0
2016-07-01T01:18:27.927Z,0
2016-07-01T01:19:27.917Z,0
2016-07-01T01:20:27.898Z,0
2016-07-01T01:21:28.521Z,0
2016-07-01T01:22:28.523Z,0
2016-07-01T01:23:27.899Z,0
2016-07-01T01:24:26.576Z,0
2016-07-01T01:25:28.459Z,0
2016-07-01T01:26:27.827Z,0
2016-07-01T01:27:27.802Z,0
2016-07-01T01:28:27.791Z,0
2016-07-01T01:29:27.766Z,0
2016-07-01T01:30:27.744Z,0
2016-07-01T01:31:27.089Z,0
2016-07-01T01:32:27.730Z,0
2016-07-01T01:33:27.066Z,0
2016-07-01T01:34:26.438Z,0
2016-07-01T01:35:28.343Z,0
2016-07-01T01:36:28.318Z,0
2016-07-01T01:37:28.340Z,0
2016-07-01T01:38:27.650Z,0
2016-07-01T01:39:28.274Z,0
2016-07-01T01:40:26.975Z,0
2016-07-01T01:41:27.596Z,0
2016-07-01T01:42:26.944Z,0
2016-07-01T01:43:26.955Z,0
2016-07-01T01:44:28.179Z,0
2016-07-01T01:45:28.181Z,0
2016-07-01T01:46:26.897Z,0
2016-07-01T01:47:26.866Z,0
2016-07-01T01:48:27.507Z,0
2016-07-01T01:49:27.509Z,0
2016-07-01T01:50:28.131Z,0
2016-07-01T01:51:27.467Z,0
2016-07-01T01:52:28.079Z,0
2016-07-01T01:53:28.088Z,0
2016-07-01T01:54:27.431Z,0
2016-07-01T01:55:27.391Z,0
2016-07-01T01:56:27.379Z,0
2016-07-01T01:57:27.387Z,0
2016-07-01T01:58:27.350Z,0
2016-07-01T01:59:27.350Z,0
2016-07-01T02:00:27.322Z,0
2016-07-01T02:01:27.959Z,0
2016-07-01T02:02:27.301Z,0
2016-07-01T02:03:27.962Z,0
2016-07-01T02:04:27.916Z,0
2016-07-01T02:05:27.305Z,0
2016-07-01T02:06:27.248Z,0
2016-07-01T02:07:27.903Z,0
2016-07-01T02:08:27.231Z,0
2016-07-01T02:09:27.830Z,0
2016-07-01T02:10:27.253Z,0
2016-07-01T02:11:27.170Z,0
2016-07-01T02:12:26.527Z,0
2016-07-01T02:13:26.512Z,0
2016-07-01T02:14:27.779Z,0
2016-07-01T02:15:27.767Z,0
2016-07-01T02:16:27.095Z,0
2016-07-01T02:17:27.090Z,0
2016-07-01T02:18:27.712Z,0
2016-07-01T02:19:27.685Z,0
2016-07-01T02:20:27.675Z,0
2016-07-01T02:21:25.753Z,0
2016-07-01T02:22:27.015Z,0
2016-07-01T02:23:27.622Z,0
2016-07-01T02:24:26.338Z,0
2016-07-01T02:25:26.321Z,0
2016-07-01T02:26:27.602Z,0
2016-07-01T02:27:26.956Z,0
2016-07-01T02:28:27.555Z,0
2016-07-01T02:29:27.553Z,0
2016-07-01T02:30:27.543Z,0
2016-07-01T02:31:26.920Z,0
2016-07-01T02:32:26.873Z,0
2016-07-01T02:33:27.503Z,0
2016-07-01T02:34:27.514Z,0
2016-07-01T02:35:26.831Z,0
2016-07-01T02:36:26.807Z,0
2016-07-01T02:37:26.792Z,0
2016-07-01T02:38:26.791Z,0
2016-07-01T02:39:27.399Z,0
2016-07-01T02:40:26.380Z,0
2016-07-01T02:41:26.734Z,0
2016-07-01T02:42:27.380Z,0
2016-07-01T02:43:26.084Z,0
2016-07-01T02:44:26.695Z,0
2016-07-01T02:45:26.682Z,0
2016-07-01T02:46:26.681Z,0
2016-07-01T02:47:26.018Z,0
2016-07-01T02:48:26.637Z,0
2016-07-01T02:49:27.263Z,0
2016-07-01T02:50:26.606Z,0
2016-07-01T02:51:27.236Z,0
2016-07-01T02:52:27.231Z,0
2016-07-01T02:53:27.221Z,0
2016-07-01T02:54:26.563Z,0
2016-07-01T02:55:27.169Z,0
2016-07-01T02:56:26.537Z,0
2016-07-01T02:57:27.167Z,0
2016-07-01T02:58:25.846Z,0
2016-07-01T02:59:26.526Z,0
2016-07-01T03:00:26.471Z,0
2016-07-01T03:01:26.458Z,0
2016-07-01T03:02:27.083Z,0
2016-07-01T03:03:27.059Z,0
2016-07-01T03:04:26.414Z,0
2016-07-01T03:05:26.410Z,0
2016-07-01T03:06:25.745Z,0
2016-07-01T03:07:27.041Z,0
2016-07-01T03:08:26.356Z,0
2016-07-01T03:09:26.998Z,0
2016-07-01T03:10:27.031Z,0
2016-07-01T03:11:27.013Z,0
2016-07-01T03:12:26.933Z,0
2016-07-01T03:13:26.925Z,0
2016-07-01T03:14:26.937Z,0
2016-07-01T03:15:26.881Z,0
2016-07-01T03:16:26.884Z,0
2016-07-01T03:17:26.873Z,0
2016-07-01T03:18:26.211Z,0
2016-07-01T03:19:26.856Z,0
2016-07-01T03:20:26.169Z,0
2016-07-01T03:21:25.545Z,0
2016-07-01T03:22:25.519Z,0
2016-07-01T03:23:26.154Z,0
2016-07-01T03:24:26.782Z,0
2016-07-01T03:25:25.507Z,0
2016-07-01T03:26:25.493Z,0
2016-07-01T03:27:26.087Z,0
2016-07-01T03:28:26.716Z,0
2016-07-01T03:29:26.710Z,0
2016-07-01T03:30:26.048Z,0
2016-07-01T03:31:26.666Z,0
2016-07-01T03:32:26.702Z,0
2016-07-01T03:33:26.655Z,0
2016-07-01T03:34:26.638Z,0
2016-07-01T03:35:25.988Z,0
2016-07-01T03:36:25.982Z,0
2016-07-01T03:37:26.590Z,0
2016-07-01T03:38:25.345Z,0
2016-07-01T03:39:26.559Z,0
2016-07-01T03:40:25.909Z,0
2016-07-01T03:41:26.526Z,0
2016-07-01T03:42:26.500Z,0
2016-07-01T03:43:25.232Z,0
2016-07-01T03:44:25.871Z,0
2016-07-01T03:45:26.473Z,0
2016-07-01T03:46:26.451Z,0
2016-07-01T03:47:26.447Z,0
2016-07-01T03:48:25.781Z,0
2016-07-01T03:49:26.415Z,0
2016-07-01T03:50:25.768Z,0
2016-07-01T03:51:25.754Z,0
2016-07-01T03:52:25.725Z,0
2016-07-01T03:53:26.352Z,0
2016-07-01T03:54:26.375Z,0
2016-07-01T03:55:26.346Z,0
2016-07-01T03:56:26.310Z,0
2016-07-01T03:57:25.685Z,0
2016-07-01T03:58:25.660Z,0
2016-07-01T03:59:26.265Z,0
2016-07-01T04:00:25.622Z,0
2016-07-01T04:01:26.230Z,0
2016-07-01T04:02:25.599Z,0
2016-07-01T04:03:25.563Z,0
2016-07-01T04:04:26.189Z,0
2016-07-01T04:05:25.537Z,0
2016-07-01T04:06:26.183Z,0
2016-07-01T04:07:25.527Z,0
2016-07-01T04:08:24.875Z,0
2016-07-01T04:09:26.343Z,0
2016-07-01T04:10:26.109Z,0
2016-07-01T04:11:26.125Z,0
2016-07-01T04:12:26.097Z,0
2016-07-01T04:13:26.070Z,0
2016-07-01T04:14:25.423Z,0
2016-07-01T04:15:26.047Z,0
2016-07-01T04:16:25.383Z,0
2016-07-01T04:17:25.366Z,0
2016-07-01T04:18:24.727Z,0
2016-07-01T04:19:25.989Z,0
2016-07-01T04:20:25.970Z,0
2016-07-01T04:21:24.663Z,0
2016-07-01T04:22:24.674Z,0
2016-07-01T04:23:25.917Z,0
2016-07-01T04:24:24.646Z,0
2016-07-01T04:25:25.274Z,0
2016-07-01T04:26:25.910Z,0
2016-07-01T04:27:25.894Z,0
2016-07-01T04:28:25.871Z,0
2016-07-01T04:29:25.215Z,0
2016-07-01T04:30:25.814Z,0
2016-07-01T04:31:23.906Z,0
2016-07-01T04:32:25.169Z,0
2016-07-01T04:33:25.208Z,0
2016-07-01T04:34:24.492Z,0
2016-07-01T04:35:24.535Z,0
2016-07-01T04:36:25.748Z,0
2016-07-01T04:37:25.764Z,0
2016-07-01T04:38:25.707Z,0
2016-07-01T04:39:24.422Z,0
2016-07-01T04:40:25.084Z,0
2016-07-01T04:41:25.033Z,0
2016-07-01T04:42:25.696Z,0
2016-07-01T04:43:25.636Z,0
2016-07-01T04:44:25.633Z,0
2016-07-01T04:45:25.618Z,0
2016-07-01T04:46:24.344Z,0
2016-07-01T04:47:24.984Z,0
2016-07-01T04:48:25.585Z,0
2016-07-01T04:49:24.955Z,0
2016-07-01T04:50:24.494Z,0
2016-07-01T04:51:24.919Z,4
2016-07-01T04:52:25.543Z,4
2016-07-01T04:53:25.513Z,0
2016-07-01T04:54:24.887Z,4
2016-07-01T04:55:25.482Z,4
2016-07-01T04:56:24.854Z,4
2016-07-01T04:57:24.822Z,0
2016-07-01T04:58:24.793Z,4
2016-07-01T04:59:25.429Z,4
2016-07-01T05:00:24.771Z,4
2016-07-01T05:01:25.389Z,8
2016-07-01T05:02:24.754Z,8
2016-07-01T05:03:25.368Z,8
2016-07-01T05:04:24.711Z,8
2016-07-01T05:05:24.704Z,12
2016-07-01T05:06:25.323Z,12
2016-07-01T05:07:24.676Z,16
2016-07-01T05:08:24.011Z,20
2016-07-01T05:09:25.303Z,24
2016-07-01T05:10:25.279Z,24
2016-07-01T05:11:24.678Z,32
2016-07-01T05:12:25.234Z,40
2016-07-01T05:13:24.653Z,44
2016-07-01T05:14:25.198Z,52
2016-07-01T05:15:24.560Z,52
2016-07-01T05:16:25.199Z,60
2016-07-01T05:17:25.158Z,68
2016-07-01T05:18:24.526Z,72
2016-07-01T05:19:25.152Z,76
2016-07-01T05:20:24.734Z,80
2016-07-01T05:21:24.467Z,92
2016-07-01T05:22:23.170Z,108
2016-07-01T05:23:25.175Z,120
2016-07-01T05:24:25.054Z,108
2016-07-01T05:25:24.430Z,112
2016-07-01T05:26:24.410Z,116
2016-07-01T05:27:25.021Z,116
2016-07-01T05:28:24.386Z,140
2016-07-01T05:29:24.383Z,168
2016-07-01T05:30:24.991Z,148
2016-07-01T05:31:23.042Z,160
2016-07-01T05:32:24.303Z,180
2016-07-01T05:33:24.318Z,192
2016-07-01T05:34:24.292Z,204
2016-07-01T05:35:24.267Z,208
2016-07-01T05:36:24.897Z,212
2016-07-01T05:37:23.610Z,208
2016-07-01T05:38:24.868Z,228
2016-07-01T05:39:24.851Z,256
2016-07-01T05:40:24.194Z,280
2016-07-01T05:41:24.825Z,280
2016-07-01T05:42:24.820Z,312
2016-07-01T05:43:23.512Z,356
2016-07-01T05:44:24.131Z,372
2016-07-01T05:45:24.131Z,380
2016-07-01T05:46:24.755Z,404
2016-07-01T05:47:24.727Z,408
2016-07-01T05:48:24.102Z,448
2016-07-01T05:49:23.421Z,460
2016-07-01T05:50:24.062Z,460
2016-07-01T05:51:24.050Z,464
2016-07-01T05:52:24.657Z,464
2016-07-01T05:53:24.647Z,472
2016-07-01T05:54:24.639Z,472
2016-07-01T05:55:24.610Z,512
2016-07-01T05:56:23.968Z,544
2016-07-01T05:57:23.331Z,524
2016-07-01T05:58:24.579Z,556
2016-07-01T05:59:24.565Z,576
2016-07-01T06:00:23.897Z,588
2016-07-01T06:01:23.933Z,620
2016-07-01T06:02:24.527Z,676
2016-07-01T06:03:23.874Z,724
2016-07-01T06:04:23.840Z,804
2016-07-01T06:05:23.855Z,792
2016-07-01T06:06:23.811Z,800
2016-07-01T06:07:23.819Z,872
2016-07-01T06:08:23.154Z,860
2016-07-01T06:09:23.143Z,872
2016-07-01T06:10:23.767Z,960
2016-07-01T06:11:23.106Z,996
2016-07-01T06:12:24.381Z,952
2016-07-01T06:13:23.734Z,888
2016-07-01T06:14:24.472Z,880
2016-07-01T06:15:23.067Z,896
2016-07-01T06:16:23.034Z,952
2016-07-01T06:17:24.308Z,1016
2016-07-01T06:18:24.284Z,1052
2016-07-01T06:19:22.993Z,1044
2016-07-01T06:20:23.631Z,1060
2016-07-01T06:21:23.607Z,1192
2016-07-01T06:22:24.316Z,1356
2016-07-01T06:23:22.309Z,1384
2016-07-01T06:24:22.298Z,1344
2016-07-01T06:25:24.188Z,1392
2016-07-01T06:26:24.189Z,1428
2016-07-01T06:27:24.162Z,1436
2016-07-01T06:28:24.146Z,1608
2016-07-01T06:29:23.508Z,1828
2016-07-01T06:30:23.479Z,1872
2016-07-01T06:31:23.514Z,1744
2016-07-01T06:32:24.101Z,1636
2016-07-01T06:33:23.445Z,1524
2016-07-01T06:34:23.419Z,1484
2016-07-01T06:35:22.780Z,1600
2016-07-01T06:36:24.035Z,1632
2016-07-01T06:37:22.757Z,1584
2016-07-01T06:38:24.021Z,1584
2016-07-01T06:39:23.990Z,1804
2016-07-01T06:40:23.981Z,1916
2016-07-01T06:41:23.326Z,1968
2016-07-01T06:42:23.310Z,2132
2016-07-01T06:43:23.936Z,2204
2016-07-01T06:44:23.935Z,2204
2016-07-01T06:45:23.911Z,2116
2016-07-01T06:46:23.901Z,2220
2016-07-01T06:47:22.611Z,2312
2016-07-01T06:48:23.889Z,2268
2016-07-01T06:49:23.218Z,2184
2016-07-01T06:50:23.202Z,2584
2016-07-01T06:51:23.189Z,2572
2016-07-01T06:52:23.807Z,2600
2016-07-01T06:53:23.807Z,2820
2016-07-01T06:54:23.134Z,3208
2016-07-01T06:55:23.121Z,3128
2016-07-01T06:56:22.467Z,3436
2016-07-01T06:57:23.082Z,3228
2016-07-01T06:58:23.727Z,3408
2016-07-01T06:59:22.445Z,3064
2016-07-01T07:00:23.095Z,2852
2016-07-01T07:01:23.688Z,2908
2016-07-01T07:02:23.661Z,2920
2016-07-01T07:03:23.017Z,2872
2016-07-01T07:04:22.390Z,2772
2016-07-01T07:05:22.992Z,2768
2016-07-01T07:06:22.982Z,3024
2016-07-01T07:07:23.602Z,3140
2016-07-01T07:08:23.576Z,3052
2016-07-01T07:09:23.553Z,3164
2016-07-01T07:10:22.918Z,3392
2016-07-01T07:11:23.535Z,3548
2016-07-01T07:12:22.887Z,3740
2016-07-01T07:13:23.510Z,4212
2016-07-01T07:14:22.862Z,4636
2016-07-01T07:15:22.935Z,4608
2016-07-01T07:16:22.837Z,4536
2016-07-01T07:17:22.845Z,4496
2016-07-01T07:18:22.881Z,4160
2016-07-01T07:19:23.414Z,4128
2016-07-01T07:20:23.406Z,4052
2016-07-01T07:21:23.384Z,3992
2016-07-01T07:22:23.423Z,4156
2016-07-01T07:23:22.094Z,4084
2016-07-01T07:24:22.750Z,3876
2016-07-01T07:25:23.351Z,4236
2016-07-01T07:26:22.684Z,3712
2016-07-01T07:27:22.710Z,4044
2016-07-01T07:28:22.654Z,4724
2016-07-01T07:29:21.384Z,4924
2016-07-01T07:30:23.267Z,5184
2016-07-01T07:31:21.988Z,5288
2016-07-01T07:32:22.602Z,5468
2016-07-01T07:33:22.626Z,5368
2016-07-01T07:34:23.224Z,5184
2016-07-01T07:35:22.575Z,5076
2016-07-01T07:36:22.563Z,4720
2016-07-01T07:37:23.190Z,4452
2016-07-01T07:38:23.163Z,4576
2016-07-01T07:39:22.510Z,4616
2016-07-01T07:40:23.135Z,4180
2016-07-01T07:41:22.513Z,4068
2016-07-01T07:42:23.104Z,4096
2016-07-01T07:43:21.181Z,4076
2016-07-01T07:44:23.064Z,4232
2016-07-01T07:45:22.473Z,4328
2016-07-01T07:46:22.420Z,4228
2016-07-01T07:47:23.042Z,4360
2016-07-01T07:48:22.392Z,4480
2016-07-01T07:49:22.398Z,4656
2016-07-01T07:50:22.989Z,4876
2016-07-01T07:51:22.373Z,5408
2016-07-01T07:52:21.691Z,5292
2016-07-01T07:53:22.312Z,4980
2016-07-01T07:54:22.305Z,4720
2016-07-01T07:55:22.935Z,4620
2016-07-01T07:56:22.929Z,4900
2016-07-01T07:57:22.258Z,4664
2016-07-01T07:58:22.874Z,4824
2016-07-01T07:59:22.238Z,5048
2016-07-01T08:00:22.231Z,5572
2016-07-01T08:01:22.848Z,5236
2016-07-01T08:02:21.546Z,4920
2016-07-01T08:03:21.528Z,5020
2016-07-01T08:04:22.813Z,4996
2016-07-01T08:05:22.792Z,4932
2016-07-01T08:06:22.154Z,4796
2016-07-01T08:07:22.113Z,5052
2016-07-01T08:08:22.095Z,5064
2016-07-01T08:09:22.731Z,4820
2016-07-01T08:10:22.984Z,4616
2016-07-01T08:11:22.090Z,4588
2016-07-01T08:12:22.054Z,4920
2016-07-01T08:13:22.075Z,5048
2016-07-01T08:14:22.045Z,5080
2016-07-01T08:15:22.838Z,5268
2016-07-01T08:16:22.032Z,5408
2016-07-01T08:17:22.466Z,5388
2016-07-01T08:18:22.711Z,5288
2016-07-01T08:19:22.630Z,5500
2016-07-01T08:20:22.641Z,6108
2016-07-01T08:21:22.602Z,6356
2016-07-01T08:22:21.956Z,5616
2016-07-01T08:23:22.568Z,6360
2016-07-01T08:24:22.621Z,7100
2016-07-01T08:25:21.911Z,7296
2016-07-01T08:26:22.515Z,7044
2016-07-01T08:27:21.893Z,6948
2016-07-01T08:28:21.213Z,7156
2016-07-01T08:29:21.842Z,7936
2016-07-01T08:30:22.489Z,7524
2016-07-01T08:31:22.426Z,7348
2016-07-01T08:32:21.777Z,6956
2016-07-01T08:33:22.404Z,7484
2016-07-01T08:34:22.412Z,6648
2016-07-01T08:35:22.385Z,6648
2016-07-01T08:36:22.354Z,7116
2016-07-01T08:37:22.353Z,7048
2016-07-01T08:38:22.320Z,7364
2016-07-01T08:39:21.698Z,7208
2016-07-01T08:40:21.679Z,7292
2016-07-01T08:41:21.029Z,8128
2016-07-01T08:42:21.027Z,8984
2016-07-01T08:43:20.375Z,9148
2016-07-01T08:44:21.722Z,8596
2016-07-01T08:45:22.233Z,9704
2016-07-01T08:46:21.586Z,9576
2016-07-01T08:47:22.214Z,9012
2016-07-01T08:48:22.194Z,9420
2016-07-01T08:49:21.542Z,9388
2016-07-01T08:50:21.542Z,10248
2016-07-01T08:51:21.519Z,10584
2016-07-01T08:52:21.518Z,10504
2016-07-01T08:53:21.490Z,10208
2016-07-01T08:54:21.480Z,9536
2016-07-01T08:55:22.119Z,9500
2016-07-01T08:56:22.091Z,10164
2016-07-01T08:57:21.437Z,10748
2016-07-01T08:58:22.063Z,11152
2016-07-01T08:59:22.060Z,11584
2016-07-01T09:00:22.525Z,10596
2016-07-01T09:01:21.382Z,10192
2016-07-01T09:02:20.715Z,11140
2016-07-01T09:03:21.375Z,11480
2016-07-01T09:04:21.978Z,11132
2016-07-01T09:05:21.352Z,11496
2016-07-01T09:06:21.574Z,11088
2016-07-01T09:07:20.658Z,10792
2016-07-01T09:08:21.064Z,10560
2016-07-01T09:09:21.934Z,10748
2016-07-01T09:10:21.320Z,11512
2016-07-01T09:11:21.250Z,10044
2016-07-01T09:12:20.599Z,8416
2016-07-01T09:13:21.231Z,9436
2016-07-01T09:14:21.850Z,8124
2016-07-01T09:15:21.203Z,8324
2016-07-01T09:16:21.246Z,9720
2016-07-01T09:17:21.258Z,11724
2016-07-01T09:18:21.161Z,12108
2016-07-01T09:19:21.833Z,11036
2016-07-01T09:20:21.148Z,12556
2016-07-01T09:21:21.153Z,13288
2016-07-01T09:22:21.751Z,13832
2016-07-01T09:23:21.147Z,13504
2016-07-01T09:24:21.764Z,13748
2016-07-01T09:25:21.775Z,13356
2016-07-01T09:26:21.758Z,12756
2016-07-01T09:27:21.048Z,11992
2016-07-01T09:28:21.693Z,12220
2016-07-01T09:29:21.342Z,11824
2016-07-01T09:30:21.656Z,13120
2016-07-01T09:31:21.663Z,11380
2016-07-01T09:32:21.010Z,10636
2016-07-01T09:33:20.385Z,9724
2016-07-01T09:34:20.975Z,11456
2016-07-01T09:35:20.939Z,12368
2016-07-01T09:36:21.577Z,12620
2016-07-01T09:37:21.278Z,11492
2016-07-01T09:38:20.963Z,11756
2016-07-01T09:39:20.915Z,11676
2016-07-01T09:40:21.609Z,11964
2016-07-01T09:41:20.902Z,12084
2016-07-01T09:42:21.521Z,10812
2016-07-01T09:43:20.859Z,10320
2016-07-01T09:44:21.059Z,10172
2016-07-01T09:45:20.857Z,11712
2016-07-01T09:46:20.839Z,10656
2016-07-01T09:47:20.914Z,11488
2016-07-01T09:48:21.407Z,9416
2016-07-01T09:49:20.788Z,11420
2016-07-01T09:50:21.859Z,10252
2016-07-01T09:51:20.735Z,9984
2016-07-01T09:52:21.835Z,10700
2016-07-01T09:53:21.400Z,10568
2016-07-01T09:54:21.374Z,10064
2016-07-01T09:55:20.053Z,11156
2016-07-01T09:56:21.337Z,11812
2016-07-01T09:57:21.299Z,12020
2016-07-01T09:58:20.018Z,10112
2016-07-01T09:59:20.657Z,10336
2016-07-01T10:00:21.590Z,11608
2016-07-01T10:01:21.302Z,13012
2016-07-01T10:02:20.596Z,11116
2016-07-01T10:03:20.580Z,9472
2016-07-01T10:04:20.576Z,6888
2016-07-01T10:05:20.567Z,7368
2016-07-01T10:06:19.936Z,9624
2016-07-01T10:07:20.549Z,8860
2016-07-01T10:08:21.191Z,6292
2016-07-01T10:09:20.565Z,4692
2016-07-01T10:10:20.526Z,5448
2016-07-01T10:11:20.544Z,5408
2016-07-01T10:12:21.138Z,5432
2016-07-01T10:13:21.247Z,5548
2016-07-01T10:14:21.128Z,5680
2016-07-01T10:15:20.651Z,5632
2016-07-01T10:16:21.149Z,5736
2016-07-01T10:17:21.067Z,6412
2016-07-01T10:18:20.410Z,7424
2016-07-01T10:19:21.023Z,8068
2016-07-01T10:20:21.092Z,8284
2016-07-01T10:21:19.768Z,9004
2016-07-01T10:22:21.481Z,10776
2016-07-01T10:23:21.145Z,10280
2016-07-01T10:24:21.603Z,8904
2016-07-01T10:25:20.941Z,10028
2016-07-01T10:26:20.290Z,10184
2016-07-01T10:27:20.929Z,9076
2016-07-01T10:28:20.579Z,9976
2016-07-01T10:29:20.910Z,10392
2016-07-01T10:30:20.417Z,11832
2016-07-01T10:31:20.923Z,7808
2016-07-01T10:32:20.313Z,8056
2016-07-01T10:33:20.870Z,7388
2016-07-01T10:34:20.415Z,7148
2016-07-01T10:35:20.182Z,7548
2016-07-01T10:36:19.569Z,7664
2016-07-01T10:37:20.183Z,7516
2016-07-01T10:38:20.876Z,7356
2016-07-01T10:39:20.916Z,7164
2016-07-01T10:40:20.216Z,7176
2016-07-01T10:41:19.507Z,7240
2016-07-01T10:42:20.116Z,7368
2016-07-01T10:43:20.207Z,7284
2016-07-01T10:44:21.331Z,7260
2016-07-01T10:45:20.891Z,7180
2016-07-01T10:46:20.747Z,7280
2016-07-01T10:47:20.071Z,7220
2016-07-01T10:48:21.170Z,7236
2016-07-01T10:49:20.655Z,7160
2016-07-01T10:50:20.216Z,7456
2016-07-01T10:51:20.656Z,7608
2016-07-01T10:52:20.213Z,8088
2016-07-01T10:53:20.717Z,8080
2016-07-01T10:54:20.607Z,8664
2016-07-01T10:55:19.360Z,8760
2016-07-01T10:56:20.801Z,8600
2016-07-01T10:57:20.522Z,7708
2016-07-01T10:58:19.252Z,8184
2016-07-01T10:59:19.243Z,7768
2016-07-01T11:00:19.877Z,8452
2016-07-01T11:01:20.260Z,8168
2016-07-01T11:02:20.040Z,7540
2016-07-01T11:03:20.470Z,7140
2016-07-01T11:04:20.477Z,7088
2016-07-01T11:05:20.475Z,7160
2016-07-01T11:06:20.158Z,7328
2016-07-01T11:07:20.417Z,7364
2016-07-01T11:08:19.762Z,7728
2016-07-01T11:09:19.800Z,7976
2016-07-01T11:10:19.759Z,7800
2016-07-01T11:11:19.783Z,7392
2016-07-01T11:12:20.373Z,7088
2016-07-01T11:13:20.397Z,7008
2016-07-01T11:14:19.161Z,6956
2016-07-01T11:15:19.050Z,6976
2016-07-01T11:16:19.963Z,6936
2016-07-01T11:17:20.502Z,6980
2016-07-01T11:18:20.389Z,7076
2016-07-01T11:19:19.632Z,6952
2016-07-01T11:20:19.688Z,6728
2016-07-01T11:21:19.609Z,6748
2016-07-01T11:22:20.240Z,6696
2016-07-01T11:23:19.592Z,6700
2016-07-01T11:24:19.582Z,6752
2016-07-01T11:25:20.198Z,6792
2016-07-01T11:26:19.540Z,6704
2016-07-01T11:27:20.163Z,6636
2016-07-01T11:28:20.199Z,6412
2016-07-01T11:29:19.525Z,6368
2016-07-01T11:30:19.520Z,6340
2016-07-01T11:31:18.871Z,6320
2016-07-01T11:32:19.491Z,6412
2016-07-01T11:33:19.474Z,6580
2016-07-01T11:34:19.455Z,11428
2016-07-01T11:35:18.811Z,42752
2016-07-01T11:36:19.424Z,88992
2016-07-01T11:37:19.446Z,112096
2016-07-01T11:38:18.800Z,108672
2016-07-01T11:39:19.416Z,108736
2016-07-01T11:40:20.049Z,111360
2016-07-01T11:41:20.025Z,107936
2016-07-01T11:42:19.367Z,110976
2016-07-01T11:43:20.011Z,112032
2016-07-01T11:44:19.379Z,111584
2016-07-01T11:45:19.388Z,106400
2016-07-01T11:46:19.989Z,105920
2016-07-01T11:47:19.362Z,109184
2016-07-01T11:48:19.370Z,106816
2016-07-01T11:49:19.336Z,102688
2016-07-01T11:50:18.674Z,107392
2016-07-01T11:51:19.944Z,111552
2016-07-01T11:52:19.950Z,110880
2016-07-01T11:53:19.327Z,113376
2016-07-01T11:54:19.316Z,113984
2016-07-01T11:55:19.335Z,107136
2016-07-01T11:56:19.926Z,103040
2016-07-01T11:57:19.320Z,107328
2016-07-01T11:58:19.285Z,113408
2016-07-01T11:59:19.907Z,114624
2016-07-01T12:00:19.284Z,111488
2016-07-01T12:01:19.904Z,110080
2016-07-01T12:02:19.929Z,110880
2016-07-01T12:03:18.637Z,110496
2016-07-01T12:04:20.180Z,112000
2016-07-01T12:05:19.267Z,111904
2016-07-01T12:06:19.907Z,110080
2016-07-01T12:07:19.263Z,111744
2016-07-01T12:08:19.906Z,110624
2016-07-01T12:09:19.920Z,96320
2016-07-01T12:10:19.881Z,65472
2016-07-01T12:11:19.252Z,38880
2016-07-01T12:12:19.880Z,24352
2016-07-01T12:13:17.999Z,19776
2016-07-01T12:14:19.905Z,18624
2016-07-01T12:15:19.883Z,18016
2016-07-01T12:16:19.903Z,17632
2016-07-01T12:17:19.879Z,17216
2016-07-01T12:18:19.222Z,17056
2016-07-01T12:19:19.866Z,16836
2016-07-01T12:20:19.893Z,16632
2016-07-01T12:21:19.878Z,16528
2016-07-01T12:22:19.234Z,16312
2016-07-01T12:23:19.218Z,16212
2016-07-01T12:24:19.210Z,16360
2016-07-01T12:25:19.225Z,17016
2016-07-01T12:26:18.607Z,20384
2016-07-01T12:27:19.890Z,25984
2016-07-01T12:28:19.238Z,25504
2016-07-01T12:29:19.844Z,21056
2016-07-01T12:30:20.234Z,19296
2016-07-01T12:31:20.570Z,18496
2016-07-01T12:32:20.211Z,18144
2016-07-01T12:33:20.705Z,17824
2016-07-01T12:34:19.299Z,17856
2016-07-01T12:35:20.177Z,17536
2016-07-01T12:36:20.279Z,16528
2016-07-01T12:37:19.870Z,16312
2016-07-01T12:38:20.061Z,16252
2016-07-01T12:39:19.210Z,16424
2016-07-01T12:40:19.886Z,16384
2016-07-01T12:41:19.850Z,16444
2016-07-01T12:42:19.892Z,16512
2016-07-01T12:43:19.417Z,16688
2016-07-01T12:44:19.872Z,16820
2016-07-01T12:45:19.915Z,16840
2016-07-01T12:46:20.063Z,17148
2016-07-01T12:47:19.936Z,17472
2016-07-01T12:48:18.675Z,17632
2016-07-01T12:49:19.863Z,17888
2016-07-01T12:50:18.628Z,18240
2016-07-01T12:51:19.240Z,18496
2016-07-01T12:52:19.288Z,18592
2016-07-01T12:53:19.185Z,18912
2016-07-01T12:54:19.453Z,19552
2016-07-01T12:55:19.882Z,19840
2016-07-01T12:56:19.137Z,20448
2016-07-01T12:57:19.778Z,21600
2016-07-01T12:58:19.816Z,25280
2016-07-01T12:59:20.043Z,35680
2016-07-01T13:00:19.967Z,57248
2016-07-01T13:01:19.829Z,78592
2016-07-01T13:02:19.555Z,90016
2016-07-01T13:03:19.146Z,99808
2016-07-01T13:04:19.142Z,106432
2016-07-01T13:05:19.822Z,109824
2016-07-01T13:06:19.849Z,108096
2016-07-01T13:07:19.164Z,109088
2016-07-01T13:08:19.173Z,110624
2016-07-01T13:09:19.778Z,108672
2016-07-01T13:10:19.203Z,101376
2016-07-01T13:11:18.514Z,95584
2016-07-01T13:12:18.474Z,102176
2016-07-01T13:13:19.060Z,108128
2016-07-01T13:14:19.697Z,106528
2016-07-01T13:15:19.058Z,104832
2016-07-01T13:16:19.055Z,105440
2016-07-01T13:17:19.689Z,108128
2016-07-01T13:18:19.689Z,107712
2016-07-01T13:19:19.071Z,104800
2016-07-01T13:20:19.044Z,103520
2016-07-01T13:21:19.682Z,102496
2016-07-01T13:22:19.085Z,103872
2016-07-01T13:23:19.057Z,106528
2016-07-01T13:24:19.073Z,106464
2016-07-01T13:25:19.693Z,104320
2016-07-01T13:26:19.056Z,109056
2016-07-01T13:27:18.468Z,110496
2016-07-01T13:28:19.690Z,110624
2016-07-01T13:29:19.684Z,105536
2016-07-01T13:30:19.052Z,101056
2016-07-01T13:31:19.688Z,100288
2016-07-01T13:32:19.049Z,97312
2016-07-01T13:33:19.098Z,101184
2016-07-01T13:34:19.725Z,100384
2016-07-01T13:35:19.719Z,98624
2016-07-01T13:36:19.102Z,102336
2016-07-01T13:37:19.700Z,102560
2016-07-01T13:38:19.056Z,103168
2016-07-01T13:39:19.057Z,103136
2016-07-01T13:40:20.174Z,105312
2016-07-01T13:41:19.169Z,112832
2016-07-01T13:42:19.683Z,115648
2016-07-01T13:43:19.685Z,115168